CheckWX is a tool to help pilots better visualize weather data.  It is not intended as a substitute for an official pre-flight weather briefing.

07:05:48 UTC

LEZG METAR
Zaragoza Air Base Airport
Zaragoza, Spain
Current

36 mins ago

LEZG 050630Z 28010KT 260V320 CAVOK 21/09 Q1022
Observed
Jul-5 @ 06:30 UTC
Wind
  • 280° at 10 KTS
Visibility
10,000+ meters
Flight Rules
VFR
Cloud Levels
  • Clear skies
Temperature
21°C / 70°F
Dewpoint
C / 48°F
Humidity
46%
Altimeter
30.18" Hg
Pressure
1021.92 hPa
Previous

1 hour ago

LEZG 050600Z 28009KT CAVOK 21/09 Q1022
Observed
Jul-5 @ 06:00 UTC
Wind
  • 280° at 9 KTS
Visibility
10,000+ meters
Flight Rules
VFR
Cloud Levels
  • Clear skies
Temperature
21°C / 70°F
Dewpoint
C / 48°F
Humidity
46%
Altimeter
30.18" Hg
Pressure
1021.92 hPa
Previous

2 hours ago

LEZG 050530Z 28011KT CAVOK 20/09 Q1021
Observed
Jul-5 @ 05:30 UTC
Wind
  • 280° at 11 KTS
Visibility
10,000+ meters
Flight Rules
VFR
Cloud Levels
  • Clear skies
Temperature
20°C / 68°F
Dewpoint
C / 48°F
Humidity
49%
Altimeter
30.15" Hg
Pressure
1020.92 hPa